sensor_id;sensor_type;location;lat;lon;timestamp;P1;durP1;ratioP1;P2;durP2;ratioP2
20415;SDS011;10367;52.202;5.996;2023-11-21T00:01:21;35.23;;;20.93;;
20415;SDS011;10367;52.202;5.996;2023-11-21T00:03:50;43.33;;;21.37;;
20415;SDS011;10367;52.202;5.996;2023-11-21T00:06:21;41.80;;;21.43;;
20415;SDS011;10367;52.202;5.996;2023-11-21T00:08:50;48.17;;;22.77;;
20415;SDS011;10367;52.202;5.996;2023-11-21T00:11:19;33.60;;;20.53;;
20415;SDS011;10367;52.202;5.996;2023-11-21T00:13:49;41.57;;;20.87;;
20415;SDS011;10367;52.202;5.996;2023-11-21T00:16:18;38.93;;;19.90;;
20415;SDS011;10367;52.202;5.996;2023-11-21T00:18:49;45.00;;;21.03;;
20415;SDS011;10367;52.202;5.996;2023-11-21T00:21:18;40.77;;;22.03;;
20415;SDS011;10367;52.202;5.996;2023-11-21T00:23:47;39.70;;;22.40;;
20415;SDS011;10367;52.202;5.996;2023-11-21T00:26:16;34.73;;;18.60;;
20415;SDS011;10367;52.202;5.996;2023-11-21T00:28:45;47.13;;;21.57;;
20415;SDS011;10367;52.202;5.996;2023-11-21T00:31:16;37.93;;;21.03;;
20415;SDS011;10367;52.202;5.996;2023-11-21T00:33:45;35.67;;;19.93;;
20415;SDS011;10367;52.202;5.996;2023-11-21T00:36:14;41.07;;;21.47;;
20415;SDS011;10367;52.202;5.996;2023-11-21T00:38:43;32.73;;;19.47;;
20415;SDS011;10367;52.202;5.996;2023-11-21T00:41:12;42.17;;;20.23;;
20415;SDS011;10367;52.202;5.996;2023-11-21T00:43:42;37.17;;;19.60;;
20415;SDS011;10367;52.202;5.996;2023-11-21T00:46:12;47.70;;;21.40;;
20415;SDS011;10367;52.202;5.996;2023-11-21T00:48:42;43.30;;;21.80;;
20415;SDS011;10367;52.202;5.996;2023-11-21T00:51:13;37.57;;;20.60;;
20415;SDS011;10367;52.202;5.996;2023-11-21T00:53:42;44.57;;;21.30;;
20415;SDS011;10367;52.202;5.996;2023-11-21T00:56:18;46.93;;;21.20;;
20415;SDS011;10367;52.202;5.996;2023-11-21T00:58:47;43.10;;;19.40;;
20415;SDS011;10367;52.202;5.996;2023-11-21T01:01:19;46.87;;;20.73;;
20415;SDS011;10367;52.202;5.996;2023-11-21T01:03:50;52.97;;;20.33;;
20415;SDS011;10367;52.202;5.996;2023-11-21T01:06:21;47.63;;;20.20;;
20415;SDS011;10367;52.202;5.996;2023-11-21T01:08:50;42.83;;;21.63;;
20415;SDS011;10367;52.202;5.996;2023-11-21T01:11:19;50.60;;;21.63;;
20415;SDS011;10367;52.202;5.996;2023-11-21T01:13:53;44.63;;;21.03;;
20415;SDS011;10367;52.202;5.996;2023-11-21T01:16:22;41.63;;;20.50;;
20415;SDS011;10367;52.202;5.996;2023-11-21T01:18:53;44.93;;;20.47;;
20415;SDS011;10367;52.202;5.996;2023-11-21T01:21:21;47.43;;;19.83;;
20415;SDS011;10367;52.202;5.996;2023-11-21T01:23:53;46.37;;;20.80;;
20415;SDS011;10367;52.202;5.996;2023-11-21T01:26:23;48.13;;;21.47;;
20415;SDS011;10367;52.202;5.996;2023-11-21T01:28:51;44.47;;;20.73;;
20415;SDS011;10367;52.202;5.996;2023-11-21T01:31:22;43.80;;;20.10;;
20415;SDS011;10367;52.202;5.996;2023-11-21T01:33:54;34.17;;;20.07;;
20415;SDS011;10367;52.202;5.996;2023-11-21T01:36:29;44.97;;;21.53;;
20415;SDS011;10367;52.202;5.996;2023-11-21T01:39:00;33.67;;;19.50;;
20415;SDS011;10367;52.202;5.996;2023-11-21T01:41:29;32.90;;;17.97;;
20415;SDS011;10367;52.202;5.996;2023-11-21T01:43:58;36.60;;;19.90;;
20415;SDS011;10367;52.202;5.996;2023-11-21T01:46:28;32.27;;;18.03;;
20415;SDS011;10367;52.202;5.996;2023-11-21T01:48:59;42.83;;;21.43;;
20415;SDS011;10367;52.202;5.996;2023-11-21T01:51:28;47.93;;;23.60;;
20415;SDS011;10367;52.202;5.996;2023-11-21T01:53:58;35.57;;;21.00;;
20415;SDS011;10367;52.202;5.996;2023-11-21T01:56:27;43.50;;;21.70;;
20415;SDS011;10367;52.202;5.996;2023-11-21T01:58:58;38.07;;;20.33;;
20415;SDS011;10367;52.202;5.996;2023-11-21T02:01:26;41.00;;;22.27;;
20415;SDS011;10367;52.202;5.996;2023-11-21T02:03:55;28.30;;;18.53;;
20415;SDS011;10367;52.202;5.996;2023-11-21T02:06:25;32.77;;;19.90;;
20415;SDS011;10367;52.202;5.996;2023-11-21T02:08:58;30.77;;;18.00;;
20415;SDS011;10367;52.202;5.996;2023-11-21T02:11:27;24.00;;;16.50;;
20415;SDS011;10367;52.202;5.996;2023-11-21T02:13:56;31.30;;;18.63;;
20415;SDS011;10367;52.202;5.996;2023-11-21T02:16:28;35.47;;;20.57;;
20415;SDS011;10367;52.202;5.996;2023-11-21T02:18:58;27.77;;;17.47;;
20415;SDS011;10367;52.202;5.996;2023-11-21T02:21:29;35.53;;;21.03;;
20415;SDS011;10367;52.202;5.996;2023-11-21T02:24:00;32.83;;;19.43;;
20415;SDS011;10367;52.202;5.996;2023-11-21T02:26:29;28.57;;;19.00;;
20415;SDS011;10367;52.202;5.996;2023-11-21T02:28:58;29.83;;;18.43;;
20415;SDS011;10367;52.202;5.996;2023-11-21T02:31:27;31.70;;;18.70;;
20415;SDS011;10367;52.202;5.996;2023-11-21T02:33:57;31.77;;;19.30;;
20415;SDS011;10367;52.202;5.996;2023-11-21T02:36:25;28.43;;;19.03;;
20415;SDS011;10367;52.202;5.996;2023-11-21T02:38:54;28.80;;;18.20;;
20415;SDS011;10367;52.202;5.996;2023-11-21T02:41:25;31.53;;;19.10;;
20415;SDS011;10367;52.202;5.996;2023-11-21T02:43:54;32.13;;;19.10;;
20415;SDS011;10367;52.202;5.996;2023-11-21T02:46:22;30.27;;;18.73;;
20415;SDS011;10367;52.202;5.996;2023-11-21T02:48:54;30.03;;;19.33;;
20415;SDS011;10367;52.202;5.996;2023-11-21T02:51:24;35.70;;;19.80;;
20415;SDS011;10367;52.202;5.996;2023-11-21T02:53:53;36.57;;;20.70;;
20415;SDS011;10367;52.202;5.996;2023-11-21T02:56:27;35.77;;;21.20;;
20415;SDS011;10367;52.202;5.996;2023-11-21T02:58:56;33.63;;;18.13;;
20415;SDS011;10367;52.202;5.996;2023-11-21T03:01:25;33.23;;;20.63;;
20415;SDS011;10367;52.202;5.996;2023-11-21T03:03:55;32.27;;;19.83;;
20415;SDS011;10367;52.202;5.996;2023-11-21T03:06:24;29.63;;;17.93;;
20415;SDS011;10367;52.202;5.996;2023-11-21T03:08:52;30.47;;;19.23;;
20415;SDS011;10367;52.202;5.996;2023-11-21T03:11:21;27.30;;;17.20;;
20415;SDS011;10367;52.202;5.996;2023-11-21T03:13:52;31.07;;;18.93;;
20415;SDS011;10367;52.202;5.996;2023-11-21T03:16:20;30.07;;;18.00;;
20415;SDS011;10367;52.202;5.996;2023-11-21T03:18:49;29.40;;;17.43;;
20415;SDS011;10367;52.202;5.996;2023-11-21T03:21:19;30.53;;;19.03;;
20415;SDS011;10367;52.202;5.996;2023-11-21T03:23:48;32.53;;;18.27;;
20415;SDS011;10367;52.202;5.996;2023-11-21T03:26:20;32.50;;;18.20;;
20415;SDS011;10367;52.202;5.996;2023-11-21T03:28:48;27.67;;;17.40;;
20415;SDS011;10367;52.202;5.996;2023-11-21T03:31:22;35.60;;;19.77;;
20415;SDS011;10367;52.202;5.996;2023-11-21T03:33:50;31.23;;;18.70;;
20415;SDS011;10367;52.202;5.996;2023-11-21T03:36:20;33.53;;;19.97;;
20415;SDS011;10367;52.202;5.996;2023-11-21T03:38:52;34.17;;;19.70;;
20415;SDS011;10367;52.202;5.996;2023-11-21T03:41:22;42.97;;;21.17;;
20415;SDS011;10367;52.202;5.996;2023-11-21T03:43:51;29.33;;;19.00;;
20415;SDS011;10367;52.202;5.996;2023-11-21T03:46:19;34.73;;;19.20;;
20415;SDS011;10367;52.202;5.996;2023-11-21T03:48:50;38.37;;;18.13;;
20415;SDS011;10367;52.202;5.996;2023-11-21T03:51:18;29.70;;;17.30;;
20415;SDS011;10367;52.202;5.996;2023-11-21T03:53:50;30.23;;;18.07;;
20415;SDS011;10367;52.202;5.996;2023-11-21T03:56:19;34.67;;;20.30;;
20415;SDS011;10367;52.202;5.996;2023-11-21T03:58:48;39.23;;;18.90;;
20415;SDS011;10367;52.202;5.996;2023-11-21T04:01:22;32.07;;;20.03;;
20415;SDS011;10367;52.202;5.996;2023-11-21T04:03:52;34.90;;;19.30;;
20415;SDS011;10367;52.202;5.996;2023-11-21T04:06:21;32.43;;;18.47;;
20415;SDS011;10367;52.202;5.996;2023-11-21T04:08:50;32.90;;;17.67;;
20415;SDS011;10367;52.202;5.996;2023-11-21T04:11:20;28.67;;;18.60;;
20415;SDS011;10367;52.202;5.996;2023-11-21T04:13:56;41.63;;;18.90;;
20415;SDS011;10367;52.202;5.996;2023-11-21T04:16:26;30.33;;;18.43;;
20415;SDS011;10367;52.202;5.996;2023-11-21T04:18:56;36.17;;;19.60;;
20415;SDS011;10367;52.202;5.996;2023-11-21T04:21:25;35.00;;;20.83;;
20415;SDS011;10367;52.202;5.996;2023-11-21T04:23:54;28.30;;;19.47;;
20415;SDS011;10367;52.202;5.996;2023-11-21T04:26:23;32.60;;;19.87;;
20415;SDS011;10367;52.202;5.996;2023-11-21T04:28:51;35.77;;;20.57;;
20415;SDS011;10367;52.202;5.996;2023-11-21T04:31:21;36.67;;;19.27;;
20415;SDS011;10367;52.202;5.996;2023-11-21T04:33:51;29.10;;;18.87;;
20415;SDS011;10367;52.202;5.996;2023-11-21T04:36:23;41.43;;;21.30;;
20415;SDS011;10367;52.202;5.996;2023-11-21T04:38:55;39.87;;;19.57;;
20415;SDS011;10367;52.202;5.996;2023-11-21T04:41:23;45.00;;;20.50;;
20415;SDS011;10367;52.202;5.996;2023-11-21T04:43:53;38.77;;;20.60;;
20415;SDS011;10367;52.202;5.996;2023-11-21T04:46:22;37.03;;;21.83;;
20415;SDS011;10367;52.202;5.996;2023-11-21T04:48:53;31.97;;;18.13;;
20415;SDS011;10367;52.202;5.996;2023-11-21T04:51:21;39.57;;;22.17;;
20415;SDS011;10367;52.202;5.996;2023-11-21T04:53:50;31.10;;;19.77;;
20415;SDS011;10367;52.202;5.996;2023-11-21T04:56:23;35.53;;;21.60;;
20415;SDS011;10367;52.202;5.996;2023-11-21T04:58:52;30.37;;;19.23;;
20415;SDS011;10367;52.202;5.996;2023-11-21T05:01:22;36.97;;;20.23;;
20415;SDS011;10367;52.202;5.996;2023-11-21T05:03:57;35.73;;;19.60;;
20415;SDS011;10367;52.202;5.996;2023-11-21T05:06:26;37.33;;;20.87;;
20415;SDS011;10367;52.202;5.996;2023-11-21T05:08:55;34.77;;;19.57;;
20415;SDS011;10367;52.202;5.996;2023-11-21T05:11:26;31.53;;;19.50;;
20415;SDS011;10367;52.202;5.996;2023-11-21T05:13:55;32.40;;;18.77;;
20415;SDS011;10367;52.202;5.996;2023-11-21T05:16:28;39.67;;;19.77;;
20415;SDS011;10367;52.202;5.996;2023-11-21T05:18:58;31.53;;;20.07;;
20415;SDS011;10367;52.202;5.996;2023-11-21T05:21:28;43.83;;;20.70;;
20415;SDS011;10367;52.202;5.996;2023-11-21T05:23:58;33.73;;;18.23;;
20415;SDS011;10367;52.202;5.996;2023-11-21T05:26:26;33.60;;;20.07;;
20415;SDS011;10367;52.202;5.996;2023-11-21T05:28:56;28.03;;;18.20;;
20415;SDS011;10367;52.202;5.996;2023-11-21T05:31:25;28.87;;;19.63;;
20415;SDS011;10367;52.202;5.996;2023-11-21T05:33:54;39.47;;;18.73;;
20415;SDS011;10367;52.202;5.996;2023-11-21T05:36:25;26.90;;;17.83;;
20415;SDS011;10367;52.202;5.996;2023-11-21T05:38:54;33.90;;;19.37;;
20415;SDS011;10367;52.202;5.996;2023-11-21T05:41:22;40.07;;;20.40;;
20415;SDS011;10367;52.202;5.996;2023-11-21T05:43:52;35.80;;;19.63;;
20415;SDS011;10367;52.202;5.996;2023-11-21T05:46:21;30.43;;;18.70;;
20415;SDS011;10367;52.202;5.996;2023-11-21T05:48:51;28.87;;;16.90;;
20415;SDS011;10367;52.202;5.996;2023-11-21T05:51:20;27.20;;;18.73;;
20415;SDS011;10367;52.202;5.996;2023-11-21T05:53:50;31.50;;;18.57;;
20415;SDS011;10367;52.202;5.996;2023-11-21T05:56:19;24.63;;;19.17;;
20415;SDS011;10367;52.202;5.996;2023-11-21T05:58:50;25.80;;;17.83;;
20415;SDS011;10367;52.202;5.996;2023-11-21T06:01:19;31.77;;;19.30;;
20415;SDS011;10367;52.202;5.996;2023-11-21T06:03:51;33.40;;;18.37;;
20415;SDS011;10367;52.202;5.996;2023-11-21T06:06:21;31.07;;;17.17;;
20415;SDS011;10367;52.202;5.996;2023-11-21T06:08:53;33.43;;;17.13;;
20415;SDS011;10367;52.202;5.996;2023-11-21T06:11:22;29.07;;;17.00;;
20415;SDS011;10367;52.202;5.996;2023-11-21T06:13:52;25.80;;;16.20;;
20415;SDS011;10367;52.202;5.996;2023-11-21T06:16:22;26.27;;;17.33;;
20415;SDS011;10367;52.202;5.996;2023-11-21T06:18:51;29.40;;;17.83;;
20415;SDS011;10367;52.202;5.996;2023-11-21T06:21:23;26.27;;;17.40;;
20415;SDS011;10367;52.202;5.996;2023-11-21T06:23:53;30.77;;;18.73;;
20415;SDS011;10367;52.202;5.996;2023-11-21T06:26:23;35.27;;;18.30;;
20415;SDS011;10367;52.202;5.996;2023-11-21T06:28:52;35.67;;;20.47;;
20415;SDS011;10367;52.202;5.996;2023-11-21T06:31:21;34.63;;;19.40;;
20415;SDS011;10367;52.202;5.996;2023-11-21T06:33:51;21.33;;;15.30;;
20415;SDS011;10367;52.202;5.996;2023-11-21T06:36:22;22.13;;;16.90;;
20415;SDS011;10367;52.202;5.996;2023-11-21T06:38:54;33.87;;;18.77;;
20415;SDS011;10367;52.202;5.996;2023-11-21T06:41:23;36.77;;;17.33;;
20415;SDS011;10367;52.202;5.996;2023-11-21T06:43:52;31.53;;;19.63;;
20415;SDS011;10367;52.202;5.996;2023-11-21T06:46:22;35.30;;;19.93;;
20415;SDS011;10367;52.202;5.996;2023-11-21T06:48:51;28.77;;;17.20;;
20415;SDS011;10367;52.202;5.996;2023-11-21T06:51:21;35.40;;;20.90;;
20415;SDS011;10367;52.202;5.996;2023-11-21T06:53:49;34.73;;;20.93;;
20415;SDS011;10367;52.202;5.996;2023-11-21T06:56:23;32.07;;;19.53;;
20415;SDS011;10367;52.202;5.996;2023-11-21T06:58:52;27.17;;;18.53;;
20415;SDS011;10367;52.202;5.996;2023-11-21T07:01:21;26.57;;;17.20;;
20415;SDS011;10367;52.202;5.996;2023-11-21T07:03:50;26.37;;;18.47;;
20415;SDS011;10367;52.202;5.996;2023-11-21T07:06:19;30.17;;;19.03;;
20415;SDS011;10367;52.202;5.996;2023-11-21T07:08:48;31.73;;;18.67;;
20415;SDS011;10367;52.202;5.996;2023-11-21T07:11:19;29.47;;;19.63;;
20415;SDS011;10367;52.202;5.996;2023-11-21T07:13:48;36.53;;;20.77;;
20415;SDS011;10367;52.202;5.996;2023-11-21T07:16:17;28.80;;;19.03;;
20415;SDS011;10367;52.202;5.996;2023-11-21T07:18:46;33.17;;;19.97;;
20415;SDS011;10367;52.202;5.996;2023-11-21T07:21:18;34.70;;;20.10;;
20415;SDS011;10367;52.202;5.996;2023-11-21T07:23:50;31.57;;;20.50;;
20415;SDS011;10367;52.202;5.996;2023-11-21T07:26:24;33.47;;;19.70;;
20415;SDS011;10367;52.202;5.996;2023-11-21T07:28:53;28.90;;;17.73;;
20415;SDS011;10367;52.202;5.996;2023-11-21T07:31:23;32.47;;;19.53;;
20415;SDS011;10367;52.202;5.996;2023-11-21T07:33:52;40.07;;;20.30;;
20415;SDS011;10367;52.202;5.996;2023-11-21T07:36:21;36.57;;;22.87;;
20415;SDS011;10367;52.202;5.996;2023-11-21T07:38:50;30.40;;;19.67;;
20415;SDS011;10367;52.202;5.996;2023-11-21T07:41:28;33.00;;;20.10;;
20415;SDS011;10367;52.202;5.996;2023-11-21T07:43:58;34.20;;;19.43;;
20415;SDS011;10367;52.202;5.996;2023-11-21T07:46:29;39.27;;;21.50;;
20415;SDS011;10367;52.202;5.996;2023-11-21T07:48:58;37.03;;;21.23;;
20415;SDS011;10367;52.202;5.996;2023-11-21T07:51:27;34.07;;;19.40;;
20415;SDS011;10367;52.202;5.996;2023-11-21T07:53:56;31.73;;;19.33;;
20415;SDS011;10367;52.202;5.996;2023-11-21T07:56:26;42.50;;;22.43;;
20415;SDS011;10367;52.202;5.996;2023-11-21T07:58:56;38.87;;;20.23;;
20415;SDS011;10367;52.202;5.996;2023-11-21T08:01:25;40.20;;;22.97;;
20415;SDS011;10367;52.202;5.996;2023-11-21T08:03:55;34.10;;;19.83;;
20415;SDS011;10367;52.202;5.996;2023-11-21T08:06:28;42.00;;;21.87;;
20415;SDS011;10367;52.202;5.996;2023-11-21T08:08:57;41.87;;;21.97;;
20415;SDS011;10367;52.202;5.996;2023-11-21T08:11:27;36.27;;;22.20;;
20415;SDS011;10367;52.202;5.996;2023-11-21T08:14:00;38.37;;;21.67;;
20415;SDS011;10367;52.202;5.996;2023-11-21T08:16:28;30.20;;;18.93;;
20415;SDS011;10367;52.202;5.996;2023-11-21T08:18:57;37.23;;;21.20;;
20415;SDS011;10367;52.202;5.996;2023-11-21T08:21:26;46.90;;;23.37;;
20415;SDS011;10367;52.202;5.996;2023-11-21T08:23:56;37.97;;;20.40;;
20415;SDS011;10367;52.202;5.996;2023-11-21T08:26:25;40.93;;;22.27;;
20415;SDS011;10367;52.202;5.996;2023-11-21T08:28:55;39.80;;;22.10;;
20415;SDS011;10367;52.202;5.996;2023-11-21T08:31:26;38.43;;;22.33;;
20415;SDS011;10367;52.202;5.996;2023-11-21T08:33:56;35.20;;;20.87;;
20415;SDS011;10367;52.202;5.996;2023-11-21T08:36:25;33.03;;;19.53;;
20415;SDS011;10367;52.202;5.996;2023-11-21T08:38:54;39.90;;;20.53;;
20415;SDS011;10367;52.202;5.996;2023-11-21T08:41:24;49.40;;;24.97;;
20415;SDS011;10367;52.202;5.996;2023-11-21T08:43:54;41.07;;;23.23;;
20415;SDS011;10367;52.202;5.996;2023-11-21T08:46:27;43.60;;;22.23;;
20415;SDS011;10367;52.202;5.996;2023-11-21T08:48:56;34.37;;;20.37;;
20415;SDS011;10367;52.202;5.996;2023-11-21T08:51:30;40.87;;;21.73;;
20415;SDS011;10367;52.202;5.996;2023-11-21T08:53:59;35.17;;;20.70;;
20415;SDS011;10367;52.202;5.996;2023-11-21T08:56:31;43.47;;;20.20;;
20415;SDS011;10367;52.202;5.996;2023-11-21T08:59:00;51.90;;;24.23;;
20415;SDS011;10367;52.202;5.996;2023-11-21T09:01:31;45.93;;;25.20;;
20415;SDS011;10367;52.202;5.996;2023-11-21T09:04:00;42.73;;;22.83;;
20415;SDS011;10367;52.202;5.996;2023-11-21T09:06:29;42.70;;;23.03;;
20415;SDS011;10367;52.202;5.996;2023-11-21T09:08:58;41.40;;;23.63;;
20415;SDS011;10367;52.202;5.996;2023-11-21T09:11:26;50.10;;;24.00;;
20415;SDS011;10367;52.202;5.996;2023-11-21T09:14:00;39.77;;;21.93;;
20415;SDS011;10367;52.202;5.996;2023-11-21T09:16:31;37.90;;;23.13;;
20415;SDS011;10367;52.202;5.996;2023-11-21T09:19:00;45.33;;;22.73;;
20415;SDS011;10367;52.202;5.996;2023-11-21T09:21:30;40.87;;;22.83;;
20415;SDS011;10367;52.202;5.996;2023-11-21T09:24:00;46.23;;;23.77;;
20415;SDS011;10367;52.202;5.996;2023-11-21T09:26:30;40.33;;;22.10;;
20415;SDS011;10367;52.202;5.996;2023-11-21T09:28:58;60.67;;;23.57;;
20415;SDS011;10367;52.202;5.996;2023-11-21T09:31:29;51.23;;;23.60;;
20415;SDS011;10367;52.202;5.996;2023-11-21T09:33:59;41.60;;;21.97;;
20415;SDS011;10367;52.202;5.996;2023-11-21T09:36:30;42.70;;;22.57;;
20415;SDS011;10367;52.202;5.996;2023-11-21T09:39:00;35.23;;;21.57;;
20415;SDS011;10367;52.202;5.996;2023-11-21T09:41:33;36.60;;;21.93;;
20415;SDS011;10367;52.202;5.996;2023-11-21T09:44:08;35.23;;;19.57;;
20415;SDS011;10367;52.202;5.996;2023-11-21T09:46:41;33.83;;;19.17;;
20415;SDS011;10367;52.202;5.996;2023-11-21T09:49:12;29.47;;;17.43;;
20415;SDS011;10367;52.202;5.996;2023-11-21T09:51:42;25.17;;;16.50;;
20415;SDS011;10367;52.202;5.996;2023-11-21T09:54:11;37.87;;;21.37;;
20415;SDS011;10367;52.202;5.996;2023-11-21T09:56:44;32.63;;;20.43;;
20415;SDS011;10367;52.202;5.996;2023-11-21T09:59:17;44.23;;;21.80;;
20415;SDS011;10367;52.202;5.996;2023-11-21T10:01:48;37.77;;;20.30;;
20415;SDS011;10367;52.202;5.996;2023-11-21T10:04:19;35.90;;;20.07;;
20415;SDS011;10367;52.202;5.996;2023-11-21T10:06:48;39.17;;;20.43;;
20415;SDS011;10367;52.202;5.996;2023-11-21T10:09:18;36.43;;;20.73;;
20415;SDS011;10367;52.202;5.996;2023-11-21T10:11:49;34.43;;;21.03;;
20415;SDS011;10367;52.202;5.996;2023-11-21T10:14:18;35.83;;;21.63;;
20415;SDS011;10367;52.202;5.996;2023-11-21T10:16:49;35.87;;;20.43;;
20415;SDS011;10367;52.202;5.996;2023-11-21T10:19:20;33.90;;;19.87;;
20415;SDS011;10367;52.202;5.996;2023-11-21T10:21:54;32.00;;;18.53;;
20415;SDS011;10367;52.202;5.996;2023-11-21T10:24:24;29.90;;;18.83;;
20415;SDS011;10367;52.202;5.996;2023-11-21T10:26:58;27.00;;;18.20;;
20415;SDS011;10367;52.202;5.996;2023-11-21T10:29:29;36.30;;;19.43;;
20415;SDS011;10367;52.202;5.996;2023-11-21T10:32:02;24.90;;;17.50;;
20415;SDS011;10367;52.202;5.996;2023-11-21T10:34:34;25.37;;;17.97;;
20415;SDS011;10367;52.202;5.996;2023-11-21T10:37:10;22.90;;;17.80;;
20415;SDS011;10367;52.202;5.996;2023-11-21T10:39:40;24.97;;;18.13;;
20415;SDS011;10367;52.202;5.996;2023-11-21T10:42:11;26.50;;;18.23;;
20415;SDS011;10367;52.202;5.996;2023-11-21T10:44:41;31.60;;;18.10;;
20415;SDS011;10367;52.202;5.996;2023-11-21T10:47:11;27.73;;;16.37;;
20415;SDS011;10367;52.202;5.996;2023-11-21T10:49:43;29.80;;;17.27;;
20415;SDS011;10367;52.202;5.996;2023-11-21T10:52:14;22.30;;;16.43;;
20415;SDS011;10367;52.202;5.996;2023-11-21T10:54:44;31.00;;;18.33;;
20415;SDS011;10367;52.202;5.996;2023-11-21T10:57:14;25.60;;;17.43;;
20415;SDS011;10367;52.202;5.996;2023-11-21T10:59:46;28.60;;;18.37;;
20415;SDS011;10367;52.202;5.996;2023-11-21T11:02:20;23.97;;;17.50;;
20415;SDS011;10367;52.202;5.996;2023-11-21T11:04:54;29.90;;;19.10;;
20415;SDS011;10367;52.202;5.996;2023-11-21T11:07:27;30.33;;;19.40;;
20415;SDS011;10367;52.202;5.996;2023-11-21T11:10:00;34.87;;;19.20;;
20415;SDS011;10367;52.202;5.996;2023-11-21T11:12:31;29.87;;;20.10;;
20415;SDS011;10367;52.202;5.996;2023-11-21T11:15:00;34.70;;;19.27;;
20415;SDS011;10367;52.202;5.996;2023-11-21T11:17:30;31.93;;;21.63;;
20415;SDS011;10367;52.202;5.996;2023-11-21T11:20:01;27.87;;;18.80;;
20415;SDS011;10367;52.202;5.996;2023-11-21T11:22:35;30.57;;;20.03;;
20415;SDS011;10367;52.202;5.996;2023-11-21T11:25:14;32.80;;;19.47;;
20415;SDS011;10367;52.202;5.996;2023-11-21T11:27:54;26.47;;;17.83;;
20415;SDS011;10367;52.202;5.996;2023-11-21T11:30:34;33.17;;;20.43;;
20415;SDS011;10367;52.202;5.996;2023-11-21T11:33:14;32.50;;;19.20;;
20415;SDS011;10367;52.202;5.996;2023-11-21T11:36:03;29.70;;;20.23;;
20415;SDS011;10367;52.202;5.996;2023-11-21T11:38:34;32.53;;;20.47;;
20415;SDS011;10367;52.202;5.996;2023-11-21T11:41:04;34.90;;;19.87;;
20415;SDS011;10367;52.202;5.996;2023-11-21T11:43:37;26.17;;;19.10;;
20415;SDS011;10367;52.202;5.996;2023-11-21T11:46:11;28.23;;;19.30;;
20415;SDS011;10367;52.202;5.996;2023-11-21T11:48:41;35.17;;;21.93;;
20415;SDS011;10367;52.202;5.996;2023-11-21T11:51:14;38.37;;;19.30;;
20415;SDS011;10367;52.202;5.996;2023-11-21T11:53:46;26.80;;;17.63;;
20415;SDS011;10367;52.202;5.996;2023-11-21T11:56:27;25.93;;;18.23;;
20415;SDS011;10367;52.202;5.996;2023-11-21T11:58:58;29.30;;;20.17;;
20415;SDS011;10367;52.202;5.996;2023-11-21T12:01:31;33.37;;;20.93;;
20415;SDS011;10367;52.202;5.996;2023-11-21T12:07:02;30.93;;;20.53;;
20415;SDS011;10367;52.202;5.996;2023-11-21T12:09:32;27.23;;;18.87;;
20415;SDS011;10367;52.202;5.996;2023-11-21T12:12:02;26.23;;;17.93;;
20415;SDS011;10367;52.202;5.996;2023-11-21T12:14:34;28.90;;;20.27;;
20415;SDS011;10367;52.202;5.996;2023-11-21T12:17:05;29.37;;;18.73;;
20415;SDS011;10367;52.202;5.996;2023-11-21T12:19:33;30.97;;;21.03;;
20415;SDS011;10367;52.202;5.996;2023-11-21T12:22:04;29.00;;;18.93;;
20415;SDS011;10367;52.202;5.996;2023-11-21T12:24:36;30.13;;;20.20;;
20415;SDS011;10367;52.202;5.996;2023-11-21T12:27:05;28.20;;;18.63;;
20415;SDS011;10367;52.202;5.996;2023-11-21T12:29:34;28.37;;;19.37;;
20415;SDS011;10367;52.202;5.996;2023-11-21T12:32:04;29.27;;;20.07;;
20415;SDS011;10367;52.202;5.996;2023-11-21T12:34:33;27.70;;;19.90;;
20415;SDS011;10367;52.202;5.996;2023-11-21T12:37:04;28.53;;;18.70;;
20415;SDS011;10367;52.202;5.996;2023-11-21T12:39:33;27.00;;;18.43;;
20415;SDS011;10367;52.202;5.996;2023-11-21T12:42:01;27.60;;;18.07;;
20415;SDS011;10367;52.202;5.996;2023-11-21T12:44:33;25.23;;;17.93;;
20415;SDS011;10367;52.202;5.996;2023-11-21T12:47:02;23.30;;;18.23;;
20415;SDS011;10367;52.202;5.996;2023-11-21T12:49:32;28.70;;;17.37;;
20415;SDS011;10367;52.202;5.996;2023-11-21T12:52:02;22.73;;;16.33;;
20415;SDS011;10367;52.202;5.996;2023-11-21T12:54:33;20.70;;;16.10;;
20415;SDS011;10367;52.202;5.996;2023-11-21T12:57:03;21.33;;;15.57;;
20415;SDS011;10367;52.202;5.996;2023-11-21T12:59:35;23.33;;;16.43;;
20415;SDS011;10367;52.202;5.996;2023-11-21T13:02:06;21.90;;;15.83;;
20415;SDS011;10367;52.202;5.996;2023-11-21T13:04:36;25.40;;;17.03;;
20415;SDS011;10367;52.202;5.996;2023-11-21T13:07:07;25.77;;;15.97;;
20415;SDS011;10367;52.202;5.996;2023-11-21T13:09:41;28.63;;;17.33;;
20415;SDS011;10367;52.202;5.996;2023-11-21T13:12:11;26.47;;;16.07;;
20415;SDS011;10367;52.202;5.996;2023-11-21T13:14:40;36.00;;;17.63;;
20415;SDS011;10367;52.202;5.996;2023-11-21T13:17:11;27.87;;;17.13;;
20415;SDS011;10367;52.202;5.996;2023-11-21T13:19:40;30.10;;;18.57;;
20415;SDS011;10367;52.202;5.996;2023-11-21T13:22:11;26.97;;;16.80;;
20415;SDS011;10367;52.202;5.996;2023-11-21T13:24:40;30.43;;;17.60;;
20415;SDS011;10367;52.202;5.996;2023-11-21T13:27:08;31.13;;;16.87;;
20415;SDS011;10367;52.202;5.996;2023-11-21T13:29:42;29.67;;;18.27;;
20415;SDS011;10367;52.202;5.996;2023-11-21T13:32:11;30.90;;;18.00;;
20415;SDS011;10367;52.202;5.996;2023-11-21T13:34:43;46.50;;;18.53;;
20415;SDS011;10367;52.202;5.996;2023-11-21T13:37:15;36.17;;;18.27;;
20415;SDS011;10367;52.202;5.996;2023-11-21T13:39:44;32.33;;;17.83;;
20415;SDS011;10367;52.202;5.996;2023-11-21T13:42:18;29.00;;;18.23;;
20415;SDS011;10367;52.202;5.996;2023-11-21T13:44:49;26.37;;;16.50;;
20415;SDS011;10367;52.202;5.996;2023-11-21T13:47:24;28.60;;;17.43;;
20415;SDS011;10367;52.202;5.996;2023-11-21T13:49:57;27.27;;;18.13;;
20415;SDS011;10367;52.202;5.996;2023-11-21T13:52:28;27.13;;;17.70;;
20415;SDS011;10367;52.202;5.996;2023-11-21T13:55:00;25.73;;;17.73;;
20415;SDS011;10367;52.202;5.996;2023-11-21T13:57:33;31.03;;;19.00;;
20415;SDS011;10367;52.202;5.996;2023-11-21T14:00:02;28.00;;;16.70;;
20415;SDS011;10367;52.202;5.996;2023-11-21T14:02:38;30.10;;;18.40;;
20415;SDS011;10367;52.202;5.996;2023-11-21T14:05:09;23.07;;;15.57;;
20415;SDS011;10367;52.202;5.996;2023-11-21T14:07:42;26.73;;;18.23;;
20415;SDS011;10367;52.202;5.996;2023-11-21T14:10:15;24.37;;;17.50;;
20415;SDS011;10367;52.202;5.996;2023-11-21T14:12:48;26.13;;;17.40;;
20415;SDS011;10367;52.202;5.996;2023-11-21T14:15:20;25.07;;;17.80;;
20415;SDS011;10367;52.202;5.996;2023-11-21T14:17:49;29.83;;;19.03;;
20415;SDS011;10367;52.202;5.996;2023-11-21T14:20:19;23.83;;;17.10;;
20415;SDS011;10367;52.202;5.996;2023-11-21T14:22:49;23.93;;;17.27;;
20415;SDS011;10367;52.202;5.996;2023-11-21T14:25:19;20.37;;;17.17;;
20415;SDS011;10367;52.202;5.996;2023-11-21T14:27:49;21.93;;;17.17;;
20415;SDS011;10367;52.202;5.996;2023-11-21T14:30:23;20.90;;;16.13;;
20415;SDS011;10367;52.202;5.996;2023-11-21T14:32:52;21.30;;;16.00;;
20415;SDS011;10367;52.202;5.996;2023-11-21T14:35:21;22.80;;;15.93;;
20415;SDS011;10367;52.202;5.996;2023-11-21T14:37:52;21.27;;;17.07;;
20415;SDS011;10367;52.202;5.996;2023-11-21T14:40:21;19.50;;;15.43;;
20415;SDS011;10367;52.202;5.996;2023-11-21T14:42:51;22.87;;;17.43;;